sensor_id;sensor_type;location;lat;lon;timestamp;P1;durP1;ratioP1;P2;durP2;ratioP2
71606;SDS011;60641;53.556;9.914;2023-05-14T00:02:08;8.70;;;4.50;;
71606;SDS011;60641;53.556;9.914;2023-05-14T00:04:35;9.00;;;4.30;;
71606;SDS011;60641;53.556;9.914;2023-05-14T00:07:01;9.60;;;4.70;;
71606;SDS011;60641;53.556;9.914;2023-05-14T00:09:28;11.50;;;4.70;;
71606;SDS011;60641;53.556;9.914;2023-05-14T00:11:55;11.00;;;4.70;;
71606;SDS011;60641;53.556;9.914;2023-05-14T00:14:22;10.30;;;5.10;;
71606;SDS011;60641;53.556;9.914;2023-05-14T00:16:48;10.60;;;4.60;;
71606;SDS011;60641;53.556;9.914;2023-05-14T00:19:15;9.20;;;4.60;;
71606;SDS011;60641;53.556;9.914;2023-05-14T00:21:41;9.80;;;4.90;;
71606;SDS011;60641;53.556;9.914;2023-05-14T00:24:08;11.10;;;4.90;;
71606;SDS011;60641;53.556;9.914;2023-05-14T00:26:34;10.40;;;5.10;;
71606;SDS011;60641;53.556;9.914;2023-05-14T00:29:01;9.70;;;4.50;;
71606;SDS011;60641;53.556;9.914;2023-05-14T00:31:28;10.30;;;4.70;;
71606;SDS011;60641;53.556;9.914;2023-05-14T00:33:54;11.80;;;5.30;;
71606;SDS011;60641;53.556;9.914;2023-05-14T00:36:21;10.20;;;4.80;;
71606;SDS011;60641;53.556;9.914;2023-05-14T00:38:47;10.20;;;5.10;;
71606;SDS011;60641;53.556;9.914;2023-05-14T00:41:14;10.60;;;5.00;;
71606;SDS011;60641;53.556;9.914;2023-05-14T00:43:40;9.90;;;4.80;;
71606;SDS011;60641;53.556;9.914;2023-05-14T00:46:07;10.20;;;4.70;;
71606;SDS011;60641;53.556;9.914;2023-05-14T00:48:33;11.90;;;4.90;;
71606;SDS011;60641;53.556;9.914;2023-05-14T00:51:00;11.20;;;4.90;;
71606;SDS011;60641;53.556;9.914;2023-05-14T00:53:29;12.40;;;4.90;;
71606;SDS011;60641;53.556;9.914;2023-05-14T00:55:56;10.40;;;5.50;;
71606;SDS011;60641;53.556;9.914;2023-05-14T00:58:23;13.30;;;5.30;;
71606;SDS011;60641;53.556;9.914;2023-05-14T01:00:49;11.30;;;5.80;;
71606;SDS011;60641;53.556;9.914;2023-05-14T01:03:17;11.30;;;5.80;;
71606;SDS011;60641;53.556;9.914;2023-05-14T01:17:17;12.20;;;6.30;;
71606;SDS011;60641;53.556;9.914;2023-05-14T01:19:46;14.20;;;5.90;;
71606;SDS011;60641;53.556;9.914;2023-05-14T01:22:13;11.80;;;5.80;;
71606;SDS011;60641;53.556;9.914;2023-05-14T01:24:40;11.30;;;6.10;;
71606;SDS011;60641;53.556;9.914;2023-05-14T01:27:21;13.10;;;5.80;;
71606;SDS011;60641;53.556;9.914;2023-05-14T01:30:30;14.70;;;5.00;;
71606;SDS011;60641;53.556;9.914;2023-05-14T01:33:01;8.90;;;4.60;;
71606;SDS011;60641;53.556;9.914;2023-05-14T01:35:31;10.20;;;4.60;;
71606;SDS011;60641;53.556;9.914;2023-05-14T01:38:02;10.00;;;4.60;;
71606;SDS011;60641;53.556;9.914;2023-05-14T01:40:30;8.90;;;4.10;;
71606;SDS011;60641;53.556;9.914;2023-05-14T01:42:57;10.50;;;4.50;;
71606;SDS011;60641;53.556;9.914;2023-05-14T01:45:24;9.20;;;3.50;;
71606;SDS011;60641;53.556;9.914;2023-05-14T01:47:51;8.80;;;4.20;;
71606;SDS011;60641;53.556;9.914;2023-05-14T01:50:18;10.60;;;4.80;;
71606;SDS011;60641;53.556;9.914;2023-05-14T01:52:44;10.10;;;4.50;;
71606;SDS011;60641;53.556;9.914;2023-05-14T01:55:12;12.70;;;4.20;;
71606;SDS011;60641;53.556;9.914;2023-05-14T01:57:38;9.20;;;4.30;;
71606;SDS011;60641;53.556;9.914;2023-05-14T02:00:05;8.30;;;4.10;;
71606;SDS011;60641;53.556;9.914;2023-05-14T02:02:31;8.60;;;3.90;;
71606;SDS011;60641;53.556;9.914;2023-05-14T02:04:58;8.70;;;4.50;;
71606;SDS011;60641;53.556;9.914;2023-05-14T02:07:24;9.20;;;4.30;;
71606;SDS011;60641;53.556;9.914;2023-05-14T02:09:51;10.00;;;4.40;;
71606;SDS011;60641;53.556;9.914;2023-05-14T02:12:17;13.40;;;4.50;;
71606;SDS011;60641;53.556;9.914;2023-05-14T02:14:44;10.10;;;4.60;;
71606;SDS011;60641;53.556;9.914;2023-05-14T02:17:11;10.90;;;4.70;;
71606;SDS011;60641;53.556;9.914;2023-05-14T02:19:41;11.10;;;5.00;;
71606;SDS011;60641;53.556;9.914;2023-05-14T02:22:07;10.60;;;4.50;;
71606;SDS011;60641;53.556;9.914;2023-05-14T02:24:34;13.30;;;5.00;;
71606;SDS011;60641;53.556;9.914;2023-05-14T02:27:00;9.70;;;4.50;;
71606;SDS011;60641;53.556;9.914;2023-05-14T02:29:27;9.20;;;4.50;;
71606;SDS011;60641;53.556;9.914;2023-05-14T02:31:54;9.60;;;4.60;;
71606;SDS011;60641;53.556;9.914;2023-05-14T02:34:21;9.00;;;4.60;;
71606;SDS011;60641;53.556;9.914;2023-05-14T02:36:48;12.40;;;4.50;;
71606;SDS011;60641;53.556;9.914;2023-05-14T02:39:14;11.90;;;4.70;;
71606;SDS011;60641;53.556;9.914;2023-05-14T02:41:41;8.70;;;4.30;;
71606;SDS011;60641;53.556;9.914;2023-05-14T02:44:07;10.20;;;4.60;;
71606;SDS011;60641;53.556;9.914;2023-05-14T02:46:34;9.60;;;4.20;;
71606;SDS011;60641;53.556;9.914;2023-05-14T02:49:00;10.00;;;4.90;;
71606;SDS011;60641;53.556;9.914;2023-05-14T02:51:28;10.10;;;4.30;;
71606;SDS011;60641;53.556;9.914;2023-05-14T02:53:54;9.00;;;4.20;;
71606;SDS011;60641;53.556;9.914;2023-05-14T02:56:21;10.70;;;5.00;;
71606;SDS011;60641;53.556;9.914;2023-05-14T02:58:47;9.20;;;4.40;;
71606;SDS011;60641;53.556;9.914;2023-05-14T03:01:14;8.90;;;4.30;;
71606;SDS011;60641;53.556;9.914;2023-05-14T03:03:40;10.00;;;4.50;;
71606;SDS011;60641;53.556;9.914;2023-05-14T03:06:07;9.00;;;4.70;;
71606;SDS011;60641;53.556;9.914;2023-05-14T03:08:33;9.50;;;4.70;;
71606;SDS011;60641;53.556;9.914;2023-05-14T03:11:00;10.50;;;4.70;;
71606;SDS011;60641;53.556;9.914;2023-05-14T03:13:26;8.80;;;4.40;;
71606;SDS011;60641;53.556;9.914;2023-05-14T03:15:52;9.70;;;4.60;;
71606;SDS011;60641;53.556;9.914;2023-05-14T03:18:22;8.20;;;4.50;;
71606;SDS011;60641;53.556;9.914;2023-05-14T03:20:48;11.50;;;4.70;;
71606;SDS011;60641;53.556;9.914;2023-05-14T03:23:15;7.90;;;4.40;;
71606;SDS011;60641;53.556;9.914;2023-05-14T03:25:41;10.60;;;4.50;;
71606;SDS011;60641;53.556;9.914;2023-05-14T03:28:08;10.40;;;4.80;;
71606;SDS011;60641;53.556;9.914;2023-05-14T03:30:35;7.70;;;4.20;;
71606;SDS011;60641;53.556;9.914;2023-05-14T03:33:01;10.20;;;4.30;;
71606;SDS011;60641;53.556;9.914;2023-05-14T03:35:27;9.20;;;4.90;;
71606;SDS011;60641;53.556;9.914;2023-05-14T03:37:54;10.30;;;4.50;;
71606;SDS011;60641;53.556;9.914;2023-05-14T03:40:23;13.40;;;4.60;;
71606;SDS011;60641;53.556;9.914;2023-05-14T03:42:50;9.60;;;4.40;;
71606;SDS011;60641;53.556;9.914;2023-05-14T03:45:17;10.20;;;4.50;;
71606;SDS011;60641;53.556;9.914;2023-05-14T03:47:43;8.10;;;4.10;;
71606;SDS011;60641;53.556;9.914;2023-05-14T03:50:09;9.00;;;4.70;;
71606;SDS011;60641;53.556;9.914;2023-05-14T03:52:36;9.40;;;4.40;;
71606;SDS011;60641;53.556;9.914;2023-05-14T03:55:02;11.30;;;4.60;;
71606;SDS011;60641;53.556;9.914;2023-05-14T03:57:29;10.10;;;4.50;;
71606;SDS011;60641;53.556;9.914;2023-05-14T03:59:55;9.40;;;4.70;;
71606;SDS011;60641;53.556;9.914;2023-05-14T04:02:22;8.10;;;4.40;;
71606;SDS011;60641;53.556;9.914;2023-05-14T04:04:48;9.60;;;4.70;;
71606;SDS011;60641;53.556;9.914;2023-05-14T04:07:15;9.00;;;4.50;;
71606;SDS011;60641;53.556;9.914;2023-05-14T04:09:41;9.60;;;4.70;;
71606;SDS011;60641;53.556;9.914;2023-05-14T04:12:08;8.50;;;4.40;;
71606;SDS011;60641;53.556;9.914;2023-05-14T04:14:34;10.90;;;4.90;;
71606;SDS011;60641;53.556;9.914;2023-05-14T04:17:01;8.90;;;4.90;;
71606;SDS011;60641;53.556;9.914;2023-05-14T04:19:27;10.70;;;4.70;;
71606;SDS011;60641;53.556;9.914;2023-05-14T04:21:54;10.40;;;5.00;;
71606;SDS011;60641;53.556;9.914;2023-05-14T04:24:20;10.40;;;4.80;;
71606;SDS011;60641;53.556;9.914;2023-05-14T04:26:47;8.20;;;4.40;;
71606;SDS011;60641;53.556;9.914;2023-05-14T04:29:13;9.90;;;4.60;;
71606;SDS011;60641;53.556;9.914;2023-05-14T04:31:40;8.30;;;4.40;;
71606;SDS011;60641;53.556;9.914;2023-05-14T04:34:08;9.60;;;4.90;;
71606;SDS011;60641;53.556;9.914;2023-05-14T04:36:34;13.40;;;4.90;;
71606;SDS011;60641;53.556;9.914;2023-05-14T04:39:01;8.70;;;4.90;;
71606;SDS011;60641;53.556;9.914;2023-05-14T04:41:27;8.80;;;5.20;;
71606;SDS011;60641;53.556;9.914;2023-05-14T04:43:54;10.40;;;5.30;;
71606;SDS011;60641;53.556;9.914;2023-05-14T04:46:21;9.30;;;5.10;;
71606;SDS011;60641;53.556;9.914;2023-05-14T04:48:48;10.70;;;5.30;;
71606;SDS011;60641;53.556;9.914;2023-05-14T04:51:15;9.50;;;5.10;;
71606;SDS011;60641;53.556;9.914;2023-05-14T04:53:41;8.90;;;5.00;;
71606;SDS011;60641;53.556;9.914;2023-05-14T04:56:08;10.20;;;4.70;;
71606;SDS011;60641;53.556;9.914;2023-05-14T04:58:36;9.10;;;4.80;;
71606;SDS011;60641;53.556;9.914;2023-05-14T05:01:03;8.90;;;4.40;;
71606;SDS011;60641;53.556;9.914;2023-05-14T05:03:30;9.60;;;4.60;;
71606;SDS011;60641;53.556;9.914;2023-05-14T05:05:56;9.70;;;5.20;;
71606;SDS011;60641;53.556;9.914;2023-05-14T05:08:25;10.20;;;4.90;;
71606;SDS011;60641;53.556;9.914;2023-05-14T05:10:51;9.70;;;4.80;;
71606;SDS011;60641;53.556;9.914;2023-05-14T05:13:18;10.40;;;4.70;;
71606;SDS011;60641;53.556;9.914;2023-05-14T05:15:44;10.00;;;4.70;;
71606;SDS011;60641;53.556;9.914;2023-05-14T05:18:11;9.70;;;4.40;;
71606;SDS011;60641;53.556;9.914;2023-05-14T05:20:37;9.10;;;4.40;;
71606;SDS011;60641;53.556;9.914;2023-05-14T05:23:03;11.00;;;4.90;;
71606;SDS011;60641;53.556;9.914;2023-05-14T05:25:30;10.90;;;5.20;;
71606;SDS011;60641;53.556;9.914;2023-05-14T05:27:57;10.20;;;4.90;;
71606;SDS011;60641;53.556;9.914;2023-05-14T05:30:23;10.30;;;4.80;;
71606;SDS011;60641;53.556;9.914;2023-05-14T05:32:49;10.90;;;5.00;;
71606;SDS011;60641;53.556;9.914;2023-05-14T05:35:16;9.90;;;5.00;;
71606;SDS011;60641;53.556;9.914;2023-05-14T05:37:42;12.90;;;4.70;;
71606;SDS011;60641;53.556;9.914;2023-05-14T05:40:10;9.10;;;4.80;;
71606;SDS011;60641;53.556;9.914;2023-05-14T05:42:39;8.30;;;4.70;;
71606;SDS011;60641;53.556;9.914;2023-05-14T05:45:06;7.70;;;4.20;;
71606;SDS011;60641;53.556;9.914;2023-05-14T05:47:33;7.80;;;4.40;;
71606;SDS011;60641;53.556;9.914;2023-05-14T05:49:59;9.10;;;4.50;;
71606;SDS011;60641;53.556;9.914;2023-05-14T05:52:26;9.10;;;4.40;;
71606;SDS011;60641;53.556;9.914;2023-05-14T05:54:52;8.90;;;4.40;;
71606;SDS011;60641;53.556;9.914;2023-05-14T05:57:19;8.70;;;4.40;;
71606;SDS011;60641;53.556;9.914;2023-05-14T05:59:46;9.40;;;4.60;;
71606;SDS011;60641;53.556;9.914;2023-05-14T06:02:13;9.60;;;4.60;;
71606;SDS011;60641;53.556;9.914;2023-05-14T06:04:39;11.80;;;5.00;;
71606;SDS011;60641;53.556;9.914;2023-05-14T06:07:06;8.50;;;4.30;;
71606;SDS011;60641;53.556;9.914;2023-05-14T06:09:32;10.90;;;4.20;;
71606;SDS011;60641;53.556;9.914;2023-05-14T06:11:58;9.80;;;4.40;;
71606;SDS011;60641;53.556;9.914;2023-05-14T06:14:25;10.60;;;5.40;;
71606;SDS011;60641;53.556;9.914;2023-05-14T06:16:51;9.90;;;5.10;;
71606;SDS011;60641;53.556;9.914;2023-05-14T06:19:18;10.40;;;4.90;;
71606;SDS011;60641;53.556;9.914;2023-05-14T06:21:44;8.60;;;4.30;;
71606;SDS011;60641;53.556;9.914;2023-05-14T06:24:11;13.10;;;4.60;;
71606;SDS011;60641;53.556;9.914;2023-05-14T06:26:38;8.50;;;4.30;;
71606;SDS011;60641;53.556;9.914;2023-05-14T06:29:04;8.90;;;4.30;;
71606;SDS011;60641;53.556;9.914;2023-05-14T06:31:31;9.00;;;4.20;;
71606;SDS011;60641;53.556;9.914;2023-05-14T06:33:57;7.80;;;4.20;;
71606;SDS011;60641;53.556;9.914;2023-05-14T06:36:24;9.40;;;4.20;;
71606;SDS011;60641;53.556;9.914;2023-05-14T06:38:50;10.30;;;4.10;;
71606;SDS011;60641;53.556;9.914;2023-05-14T06:41:16;8.70;;;4.10;;
71606;SDS011;60641;53.556;9.914;2023-05-14T06:43:43;10.10;;;4.20;;
71606;SDS011;60641;53.556;9.914;2023-05-14T06:46:09;10.10;;;4.20;;
71606;SDS011;60641;53.556;9.914;2023-05-14T06:48:36;12.20;;;4.00;;
71606;SDS011;60641;53.556;9.914;2023-05-14T06:51:02;8.40;;;4.30;;
71606;SDS011;60641;53.556;9.914;2023-05-14T06:53:29;8.10;;;3.90;;
71606;SDS011;60641;53.556;9.914;2023-05-14T06:55:56;10.60;;;3.90;;
71606;SDS011;60641;53.556;9.914;2023-05-14T06:58:22;10.70;;;3.80;;
71606;SDS011;60641;53.556;9.914;2023-05-14T07:00:49;8.80;;;4.10;;
71606;SDS011;60641;53.556;9.914;2023-05-14T07:03:15;9.40;;;4.10;;
71606;SDS011;60641;53.556;9.914;2023-05-14T07:05:42;8.40;;;4.00;;
71606;SDS011;60641;53.556;9.914;2023-05-14T07:08:10;10.80;;;3.80;;
71606;SDS011;60641;53.556;9.914;2023-05-14T07:10:37;8.00;;;3.90;;
71606;SDS011;60641;53.556;9.914;2023-05-14T07:13:04;11.10;;;3.40;;
71606;SDS011;60641;53.556;9.914;2023-05-14T07:15:30;8.20;;;3.60;;
71606;SDS011;60641;53.556;9.914;2023-05-14T07:17:57;10.70;;;3.10;;
71606;SDS011;60641;53.556;9.914;2023-05-14T07:20:23;7.70;;;3.30;;
71606;SDS011;60641;53.556;9.914;2023-05-14T07:22:51;8.90;;;4.10;;
71606;SDS011;60641;53.556;9.914;2023-05-14T07:25:17;6.90;;;3.30;;
71606;SDS011;60641;53.556;9.914;2023-05-14T07:27:44;6.50;;;3.40;;
71606;SDS011;60641;53.556;9.914;2023-05-14T07:30:10;9.60;;;3.60;;
71606;SDS011;60641;53.556;9.914;2023-05-14T07:32:37;7.10;;;3.10;;
71606;SDS011;60641;53.556;9.914;2023-05-14T07:35:04;6.90;;;2.80;;
71606;SDS011;60641;53.556;9.914;2023-05-14T07:37:31;8.10;;;3.00;;
71606;SDS011;60641;53.556;9.914;2023-05-14T07:39:57;8.50;;;3.10;;
71606;SDS011;60641;53.556;9.914;2023-05-14T07:42:24;6.70;;;3.20;;
71606;SDS011;60641;53.556;9.914;2023-05-14T07:44:52;7.50;;;3.30;;
71606;SDS011;60641;53.556;9.914;2023-05-14T07:47:18;6.10;;;2.70;;
71606;SDS011;60641;53.556;9.914;2023-05-14T07:49:45;8.90;;;3.10;;
71606;SDS011;60641;53.556;9.914;2023-05-14T07:52:11;6.70;;;3.40;;
71606;SDS011;60641;53.556;9.914;2023-05-14T07:54:38;10.00;;;3.70;;
71606;SDS011;60641;53.556;9.914;2023-05-14T07:57:04;8.60;;;3.40;;
71606;SDS011;60641;53.556;9.914;2023-05-14T07:59:31;7.50;;;3.40;;
71606;SDS011;60641;53.556;9.914;2023-05-14T08:01:57;8.20;;;3.30;;
71606;SDS011;60641;53.556;9.914;2023-05-14T08:04:24;7.10;;;3.40;;
71606;SDS011;60641;53.556;9.914;2023-05-14T08:06:51;9.30;;;3.60;;
71606;SDS011;60641;53.556;9.914;2023-05-14T08:09:17;6.70;;;3.20;;
71606;SDS011;60641;53.556;9.914;2023-05-14T08:11:44;7.70;;;4.10;;
71606;SDS011;60641;53.556;9.914;2023-05-14T08:14:10;8.80;;;3.70;;
71606;SDS011;60641;53.556;9.914;2023-05-14T08:16:37;8.70;;;3.30;;
71606;SDS011;60641;53.556;9.914;2023-05-14T08:19:03;6.90;;;3.30;;
71606;SDS011;60641;53.556;9.914;2023-05-14T08:21:30;6.70;;;3.40;;
71606;SDS011;60641;53.556;9.914;2023-05-14T08:23:57;7.60;;;2.70;;
71606;SDS011;60641;53.556;9.914;2023-05-14T08:26:24;8.50;;;3.40;;
71606;SDS011;60641;53.556;9.914;2023-05-14T08:28:51;7.50;;;3.50;;
71606;SDS011;60641;53.556;9.914;2023-05-14T08:31:18;7.80;;;3.70;;
71606;SDS011;60641;53.556;9.914;2023-05-14T08:33:45;7.50;;;2.90;;
71606;SDS011;60641;53.556;9.914;2023-05-14T08:36:12;7.20;;;3.30;;
71606;SDS011;60641;53.556;9.914;2023-05-14T08:38:39;8.30;;;2.90;;
71606;SDS011;60641;53.556;9.914;2023-05-14T08:41:05;6.80;;;2.50;;
71606;SDS011;60641;53.556;9.914;2023-05-14T08:44:18;6.80;;;2.80;;
71606;SDS011;60641;53.556;9.914;2023-05-14T08:46:38;9.70;;;3.50;;
71606;SDS011;60641;53.556;9.914;2023-05-14T08:49:17;8.20;;;3.40;;
71606;SDS011;60641;53.556;9.914;2023-05-14T08:52:05;11.00;;;3.50;;
71606;SDS011;60641;53.556;9.914;2023-05-14T08:54:33;8.70;;;3.20;;
71606;SDS011;60641;53.556;9.914;2023-05-14T08:57:01;6.30;;;3.20;;
71606;SDS011;60641;53.556;9.914;2023-05-14T08:59:28;9.20;;;3.20;;
71606;SDS011;60641;53.556;9.914;2023-05-14T09:01:55;7.50;;;2.90;;
71606;SDS011;60641;53.556;9.914;2023-05-14T09:04:24;8.10;;;2.80;;
71606;SDS011;60641;53.556;9.914;2023-05-14T09:06:52;7.00;;;3.00;;
71606;SDS011;60641;53.556;9.914;2023-05-14T09:09:19;7.20;;;3.00;;
71606;SDS011;60641;53.556;9.914;2023-05-14T09:11:49;9.50;;;3.20;;
71606;SDS011;60641;53.556;9.914;2023-05-14T09:14:17;9.30;;;3.90;;
71606;SDS011;60641;53.556;9.914;2023-05-14T09:16:45;7.30;;;3.20;;
71606;SDS011;60641;53.556;9.914;2023-05-14T09:19:13;7.70;;;3.10;;
71606;SDS011;60641;53.556;9.914;2023-05-14T09:21:40;10.30;;;3.40;;
71606;SDS011;60641;53.556;9.914;2023-05-14T09:24:07;7.60;;;3.10;;
71606;SDS011;60641;53.556;9.914;2023-05-14T09:26:34;9.30;;;3.40;;
71606;SDS011;60641;53.556;9.914;2023-05-14T09:29:01;7.90;;;3.30;;
71606;SDS011;60641;53.556;9.914;2023-05-14T09:31:28;8.80;;;3.10;;
71606;SDS011;60641;53.556;9.914;2023-05-14T09:33:57;8.00;;;3.00;;
71606;SDS011;60641;53.556;9.914;2023-05-14T09:36:24;9.80;;;3.20;;
71606;SDS011;60641;53.556;9.914;2023-05-14T09:38:55;9.30;;;3.40;;
71606;SDS011;60641;53.556;9.914;2023-05-14T09:41:22;6.60;;;2.90;;
71606;SDS011;60641;53.556;9.914;2023-05-14T09:43:51;7.30;;;3.30;;
71606;SDS011;60641;53.556;9.914;2023-05-14T09:46:18;11.10;;;3.40;;
71606;SDS011;60641;53.556;9.914;2023-05-14T09:48:44;6.40;;;3.20;;
71606;SDS011;60641;53.556;9.914;2023-05-14T09:51:11;9.50;;;3.70;;
71606;SDS011;60641;53.556;9.914;2023-05-14T09:53:38;6.70;;;3.20;;
71606;SDS011;60641;53.556;9.914;2023-05-14T09:56:06;7.10;;;3.10;;
71606;SDS011;60641;53.556;9.914;2023-05-14T09:58:32;7.50;;;2.90;;
71606;SDS011;60641;53.556;9.914;2023-05-14T10:00:59;9.00;;;2.90;;
71606;SDS011;60641;53.556;9.914;2023-05-14T10:03:28;7.80;;;3.10;;
71606;SDS011;60641;53.556;9.914;2023-05-14T10:05:57;9.80;;;3.30;;
71606;SDS011;60641;53.556;9.914;2023-05-14T10:08:26;8.80;;;3.10;;
71606;SDS011;60641;53.556;9.914;2023-05-14T10:10:56;9.20;;;3.00;;
71606;SDS011;60641;53.556;9.914;2023-05-14T10:13:26;6.40;;;2.80;;
71606;SDS011;60641;53.556;9.914;2023-05-14T10:18:42;7.70;;;2.90;;
71606;SDS011;60641;53.556;9.914;2023-05-14T10:21:18;7.10;;;3.20;;
71606;SDS011;60641;53.556;9.914;2023-05-14T10:23:45;6.10;;;3.00;;
71606;SDS011;60641;53.556;9.914;2023-05-14T10:26:12;7.40;;;2.80;;
71606;SDS011;60641;53.556;9.914;2023-05-14T10:28:39;6.50;;;3.30;;
71606;SDS011;60641;53.556;9.914;2023-05-14T10:31:07;7.90;;;2.60;;
71606;SDS011;60641;53.556;9.914;2023-05-14T10:33:47;8.10;;;3.00;;
71606;SDS011;60641;53.556;9.914;2023-05-14T10:36:18;7.50;;;2.50;;
71606;SDS011;60641;53.556;9.914;2023-05-14T10:38:46;9.70;;;2.90;;
71606;SDS011;60641;53.556;9.914;2023-05-14T10:41:12;7.50;;;2.90;;
71606;SDS011;60641;53.556;9.914;2023-05-14T10:43:42;7.10;;;2.70;;
71606;SDS011;60641;53.556;9.914;2023-05-14T10:46:10;6.30;;;2.80;;
71606;SDS011;60641;53.556;9.914;2023-05-14T10:48:38;8.70;;;2.80;;
71606;SDS011;60641;53.556;9.914;2023-05-14T10:51:07;7.50;;;2.90;;
71606;SDS011;60641;53.556;9.914;2023-05-14T10:56:04;6.60;;;2.70;;
71606;SDS011;60641;53.556;9.914;2023-05-14T10:58:36;6.80;;;2.50;;
71606;SDS011;60641;53.556;9.914;2023-05-14T11:01:04;7.40;;;2.70;;
71606;SDS011;60641;53.556;9.914;2023-05-14T11:03:37;8.60;;;2.80;;
71606;SDS011;60641;53.556;9.914;2023-05-14T11:06:07;11.90;;;2.60;;
71606;SDS011;60641;53.556;9.914;2023-05-14T11:08:34;6.40;;;2.90;;
71606;SDS011;60641;53.556;9.914;2023-05-14T11:11:02;6.50;;;2.80;;
71606;SDS011;60641;53.556;9.914;2023-05-14T11:13:28;6.40;;;3.10;;
71606;SDS011;60641;53.556;9.914;2023-05-14T11:15:55;10.40;;;2.70;;
71606;SDS011;60641;53.556;9.914;2023-05-14T11:18:26;7.30;;;2.60;;
71606;SDS011;60641;53.556;9.914;2023-05-14T11:20:57;7.70;;;3.00;;
71606;SDS011;60641;53.556;9.914;2023-05-14T11:23:27;6.10;;;2.80;;
71606;SDS011;60641;53.556;9.914;2023-05-14T11:25:54;7.00;;;2.90;;
71606;SDS011;60641;53.556;9.914;2023-05-14T11:28:22;5.60;;;2.60;;
71606;SDS011;60641;53.556;9.914;2023-05-14T11:30:49;6.40;;;3.10;;
71606;SDS011;60641;53.556;9.914;2023-05-14T11:33:16;6.20;;;3.10;;
71606;SDS011;60641;53.556;9.914;2023-05-14T11:35:43;7.40;;;3.00;;
71606;SDS011;60641;53.556;9.914;2023-05-14T11:38:14;9.10;;;3.20;;
71606;SDS011;60641;53.556;9.914;2023-05-14T11:40:42;7.60;;;3.30;;
71606;SDS011;60641;53.556;9.914;2023-05-14T11:43:09;8.00;;;2.90;;
71606;SDS011;60641;53.556;9.914;2023-05-14T11:45:36;5.70;;;2.70;;
71606;SDS011;60641;53.556;9.914;2023-05-14T11:48:10;9.20;;;3.30;;
71606;SDS011;60641;53.556;9.914;2023-05-14T11:50:37;6.80;;;3.20;;
71606;SDS011;60641;53.556;9.914;2023-05-14T11:53:03;7.90;;;3.10;;
71606;SDS011;60641;53.556;9.914;2023-05-14T11:55:29;6.40;;;3.00;;
71606;SDS011;60641;53.556;9.914;2023-05-14T11:57:59;6.50;;;2.80;;
71606;SDS011;60641;53.556;9.914;2023-05-14T12:00:26;8.20;;;3.50;;
71606;SDS011;60641;53.556;9.914;2023-05-14T12:02:52;6.80;;;2.80;;
71606;SDS011;60641;53.556;9.914;2023-05-14T12:05:19;5.70;;;2.80;;
71606;SDS011;60641;53.556;9.914;2023-05-14T12:07:46;5.30;;;2.60;;
71606;SDS011;60641;53.556;9.914;2023-05-14T12:10:13;11.00;;;2.80;;
71606;SDS011;60641;53.556;9.914;2023-05-14T12:12:39;5.30;;;2.70;;
71606;SDS011;60641;53.556;9.914;2023-05-14T12:15:11;7.30;;;2.70;;
71606;SDS011;60641;53.556;9.914;2023-05-14T12:17:38;8.60;;;3.10;;
71606;SDS011;60641;53.556;9.914;2023-05-14T12:20:07;7.90;;;3.30;;
71606;SDS011;60641;53.556;9.914;2023-05-14T12:22:35;7.00;;;2.70;;
71606;SDS011;60641;53.556;9.914;2023-05-14T12:25:02;8.80;;;2.80;;
71606;SDS011;60641;53.556;9.914;2023-05-14T12:27:29;8.30;;;2.90;;
71606;SDS011;60641;53.556;9.914;2023-05-14T12:30:01;9.00;;;2.90;;
71606;SDS011;60641;53.556;9.914;2023-05-14T12:32:32;9.40;;;2.90;;
71606;SDS011;60641;53.556;9.914;2023-05-14T12:34:59;9.30;;;2.70;;
71606;SDS011;60641;53.556;9.914;2023-05-14T12:37:26;7.40;;;2.90;;
71606;SDS011;60641;53.556;9.914;2023-05-14T12:39:53;7.40;;;2.80;;
71606;SDS011;60641;53.556;9.914;2023-05-14T12:42:20;7.30;;;3.00;;
71606;SDS011;60641;53.556;9.914;2023-05-14T12:44:47;8.90;;;2.80;;
71606;SDS011;60641;53.556;9.914;2023-05-14T12:47:13;9.50;;;2.90;;
71606;SDS011;60641;53.556;9.914;2023-05-14T12:49:40;8.70;;;3.30;;
71606;SDS011;60641;53.556;9.914;2023-05-14T12:52:06;6.90;;;2.80;;
71606;SDS011;60641;53.556;9.914;2023-05-14T12:54:33;7.20;;;3.30;;
71606;SDS011;60641;53.556;9.914;2023-05-14T12:56:59;7.40;;;3.00;;
71606;SDS011;60641;53.556;9.914;2023-05-14T12:59:26;10.00;;;3.20;;
71606;SDS011;60641;53.556;9.914;2023-05-14T13:01:52;9.50;;;3.10;;
71606;SDS011;60641;53.556;9.914;2023-05-14T13:04:19;6.70;;;3.00;;
71606;SDS011;60641;53.556;9.914;2023-05-14T13:06:45;7.00;;;2.90;;
71606;SDS011;60641;53.556;9.914;2023-05-14T13:09:12;8.60;;;3.30;;
71606;SDS011;60641;53.556;9.914;2023-05-14T13:11:38;7.30;;;3.00;;
71606;SDS011;60641;53.556;9.914;2023-05-14T13:14:05;7.40;;;3.00;;
71606;SDS011;60641;53.556;9.914;2023-05-14T13:16:31;7.20;;;3.20;;
71606;SDS011;60641;53.556;9.914;2023-05-14T13:18:58;5.70;;;2.70;;
71606;SDS011;60641;53.556;9.914;2023-05-14T13:21:24;7.60;;;3.10;;
71606;SDS011;60641;53.556;9.914;2023-05-14T13:23:51;6.60;;;2.80;;
71606;SDS011;60641;53.556;9.914;2023-05-14T13:26:17;6.70;;;3.00;;
71606;SDS011;60641;53.556;9.914;2023-05-14T13:28:44;6.70;;;3.00;;
71606;SDS011;60641;53.556;9.914;2023-05-14T13:31:11;7.80;;;3.00;;
71606;SDS011;60641;53.556;9.914;2023-05-14T13:33:40;8.60;;;3.10;;
71606;SDS011;60641;53.556;9.914;2023-05-14T13:36:07;6.50;;;3.10;;
71606;SDS011;60641;53.556;9.914;2023-05-14T13:38:34;9.00;;;3.50;;
71606;SDS011;60641;53.556;9.914;2023-05-14T13:41:01;8.70;;;3.80;;
71606;SDS011;60641;53.556;9.914;2023-05-14T13:43:28;7.90;;;3.20;;
71606;SDS011;60641;53.556;9.914;2023-05-14T13:45:55;6.90;;;3.70;;
71606;SDS011;60641;53.556;9.914;2023-05-14T13:48:22;9.30;;;3.60;;
71606;SDS011;60641;53.556;9.914;2023-05-14T13:50:49;9.50;;;3.30;;
71606;SDS011;60641;53.556;9.914;2023-05-14T13:53:19;6.90;;;3.10;;
71606;SDS011;60641;53.556;9.914;2023-05-14T13:55:48;4.90;;;2.20;;
71606;SDS011;60641;53.556;9.914;2023-05-14T13:58:15;6.80;;;2.40;;
71606;SDS011;60641;53.556;9.914;2023-05-14T14:00:45;6.20;;;2.90;;
71606;SDS011;60641;53.556;9.914;2023-05-14T14:03:12;6.20;;;2.80;;
71606;SDS011;60641;53.556;9.914;2023-05-14T14:05:38;6.70;;;3.10;;
71606;SDS011;60641;53.556;9.914;2023-05-14T14:08:04;8.70;;;3.10;;
71606;SDS011;60641;53.556;9.914;2023-05-14T14:10:31;8.10;;;3.10;;
71606;SDS011;60641;53.556;9.914;2023-05-14T14:12:57;7.10;;;3.20;;
71606;SDS011;60641;53.556;9.914;2023-05-14T14:15:24;8.80;;;3.10;;
71606;SDS011;60641;53.556;9.914;2023-05-14T14:17:50;7.00;;;2.70;;
71606;SDS011;60641;53.556;9.914;2023-05-14T14:20:17;6.50;;;3.00;;
71606;SDS011;60641;53.556;9.914;2023-05-14T14:22:43;8.30;;;2.40;;
71606;SDS011;60641;53.556;9.914;2023-05-14T14:25:10;5.60;;;2.30;;
71606;SDS011;60641;53.556;9.914;2023-05-14T14:27:38;8.10;;;2.90;;
71606;SDS011;60641;53.556;9.914;2023-05-14T14:30:09;7.70;;;2.80;;
71606;SDS011;60641;53.556;9.914;2023-05-14T14:32:43;6.60;;;2.60;;
71606;SDS011;60641;53.556;9.914;2023-05-14T14:35:11;8.90;;;3.10;;
71606;SDS011;60641;53.556;9.914;2023-05-14T14:37:39;8.10;;;2.90;;
71606;SDS011;60641;53.556;9.914;2023-05-14T14:40:06;6.90;;;2.50;;
71606;SDS011;60641;53.556;9.914;2023-05-14T14:42:33;6.10;;;2.20;;
71606;SDS011;60641;53.556;9.914;2023-05-14T14:45:00;5.00;;;2.60;;
71606;SDS011;60641;53.556;9.914;2023-05-14T14:47:26;7.80;;;2.80;;
71606;SDS011;60641;53.556;9.914;2023-05-14T14:49:54;10.00;;;2.70;;
71606;SDS011;60641;53.556;9.914;2023-05-14T14:52:20;7.70;;;2.80;;
71606;SDS011;60641;53.556;9.914;2023-05-14T14:54:47;7.50;;;3.10;;
71606;SDS011;60641;53.556;9.914;2023-05-14T14:57:13;8.80;;;3.00;;
71606;SDS011;60641;53.556;9.914;2023-05-14T14:59:40;8.00;;;2.80;;
71606;SDS011;60641;53.556;9.914;2023-05-14T15:02:06;10.20;;;3.20;;